Danville, KY

9:57 PM EDT on July 23, 2014 (GMT -0400)
Richmond (KI39) Elev 1001 ft | 37.63 °N, 84.33 °W | Change Station

Current weather conditions updated 22 minutes ago

Scattered Clouds
Scattered Clouds
72 °F
Feels Like 72 °F
N
7
Wind Variable Wind from SSW

Tomorrow is forecast to be Much Cooler than today. Showers ending by midday.

Today
High -- | Low -- °F
--% Chance of Precip.
Yesterday
High -- | Low -- °F
Precip. -- in
6:35 AM 8:55 PM
Waning Crescent, 7% visible
Pressure 29.99 in
Visibility 10.0 miles
Clouds Scattered Clouds 4500 ft
Scattered Clouds 9000 ft
Dew Point 66 °F
Humidity 83%
Rainfall 0.00 in
Snow Depth Not available.
UV 0 out of 12
Pollen 4.10 out of 12
Air Quality Not available.
Flu Activity Not available.
METAR KI39 240135Z AUTO 20006KT 10SM SCT045 SCT090 22/19 A2999 RMK AO2

More Conditions Fewer Conditions

Pressure 29.99 in
Visibility 10.0 miles
Clouds Scattered Clouds 4500 ft
Scattered Clouds 9000 ft
Dew Point 66 °F
Humidity 83%
Rainfall 0.00 in
Snow Depth Not available.
UV 0 out of 12
Pollen 4.10 out of 12
Air Quality Not available.
Flu Activity Not available.
METAR KI39 240135Z AUTO 20006KT 10SM SCT045 SCT090 22/19 A2999 RMK AO2

More Conditions Fewer Conditions

10-Day Weather Forecast

Almanac

Astronomy

Jul. 23, 2014 Rise Set
Actual Time 6:35 AM EDT 8:55 PM EDT
Civil Twilight 6:05 AM EDT 9:24 PM EDT
Nautical Twilight 5:29 AM EDT 10:01 PM EDT
Astronomical Twilight 4:48 AM EDT 10:41 PM EDT
Moon 3:53 AM EDT (7/23) 6:23 PM EDT (7/23)
Length of Visible Light 15h 19m
Length of Day
14h 19m
Tomorrow will be 1m 33s shorter.
Waning Crescent, 7% of the Moon is Illuminated
Today
Waning Crescent
Jul 26
New
Aug 3
First Quarter
Aug 10
Full
Aug 17
Last Quarter

Today's Extremes

State Highs State Lows

Community

WunderPhotos

Upload Photos

1,736,843 photos uploaded!

Nearby

Snow Depth

Station Depth Elevation
No new snow has been reported.

Earthquake Activity

City Distance Mag. Time & Date
No recent earthquake activity has been reported nearby.
Minimum magnitude displayed is 2.5.

Coastal Water Temperatures

Place Temperature
No Stations Reporting

Nearby Weather Stations

Station Location Temp. Heat Index Dew Point Humidity Wind Precip. Elev Updated Type
Berwick Drive, Danville, KY 70.8 °F - 69 °F 94% SSE  at  1.0 mph 0.00 in / hr 980 ft 9:55 PM EDT Normal
Perryville, KY, Danville, KY 72.1 °F - 72 °F 99% West  at  0.7 mph 0.00 in / hr 915 ft 9:55 PM EDT Normal
Rocky Fork, Lancaster, KY 74.7 °F 75 °F 68 °F 79% West  at  1.3 mph 0.00 in / hr 804 ft 9:57 PM EDT Rapid Fire
K. Bracketts Weather Station 39 N, Crab Orchard, KY 70.3 °F - 70 °F 99% North  at  0.0 mph 0.00 in / hr 952 ft 9:57 PM EDT Rapid Fire

Show More Stations Show Fewer Stations